Time;durP1;ratioP1;P1;durP2;ratioP2;P2;SDS_P1;SDS_P2;PMS_P1;PMS_P2;Temp;Humidity;BMP_temperature;BMP_pressure;BME280_temperature;BME280_humidity;BME280_pressure;Samples;Min_cycle;Max_cycle;Signal;HPM_P1;HPM_P2
2023/02/23 00:00:19;;;;;;;32.10;14.63;;;;;;;7.97;100.00;98425.81;4930717;29;20158;-76
2023/02/23 00:02:47;;;;;;;30.25;14.95;;;;;;;8.07;100.00;98434.38;4945387;28;20097;-77
2023/02/23 00:05:12;;;;;;;33.63;14.90;;;;;;;8.09;100.00;98438.50;4928825;29;20036;-77
2023/02/23 00:07:37;;;;;;;25.95;13.98;;;;;;;8.06;100.00;98440.78;4929715;28;20036;-76
2023/02/23 00:10:03;;;;;;;26.02;14.88;;;;;;;7.94;100.00;98435.09;4939784;29;20031;-75
2023/02/23 00:12:29;;;;;;;26.88;15.20;;;;;;;7.97;100.00;98447.34;4929031;28;20469;-75
2023/02/23 00:14:54;;;;;;;30.23;14.90;;;;;;;7.90;100.00;98437.34;4922544;29;20066;-76
2023/02/23 00:17:19;;;;;;;30.65;15.25;;;;;;;7.97;100.00;98432.03;4921178;29;20036;-78
2023/02/23 00:19:48;;;;;;;28.17;14.35;;;;;;;7.90;100.00;98423.03;4929097;29;20166;-76
2023/02/23 00:22:13;;;;;;;27.13;14.80;;;;;;;7.98;100.00;98428.28;4942885;28;20028;-75
2023/02/23 00:24:41;;;;;;;30.98;14.23;;;;;;;7.97;100.00;98432.03;4942765;29;20279;-75
2023/02/23 00:27:06;;;;;;;26.58;14.68;;;;;;;8.00;100.00;98420.00;4927659;28;20098;-76
2023/02/23 00:32:07;;;;;;;26.73;14.57;;;;;;;8.24;100.00;98435.72;1451284;26;20135;-68
2023/02/23 00:34:34;;;;;;;28.73;13.63;;;;;;;8.23;100.00;98441.31;5042588;28;20109;-68
2023/02/23 00:36:59;;;;;;;27.23;14.88;;;;;;;8.16;100.00;98440.44;5030321;28;20389;-69
2023/02/23 00:39:27;;;;;;;29.58;13.70;;;;;;;8.11;100.00;98438.31;5027218;28;20026;-68
2023/02/23 00:41:54;;;;;;;28.73;14.48;;;;;;;8.08;100.00;98436.84;5031182;28;20032;-69
2023/02/23 00:44:22;;;;;;;27.88;14.50;;;;;;;8.01;100.00;98427.88;5007475;23;20070;-75
2023/02/23 00:46:50;;;;;;;25.25;13.95;;;;;;;8.15;100.00;98444.13;4950441;29;20031;-75
2023/02/23 00:49:16;;;;;;;32.60;14.98;;;;;;;8.20;100.00;98434.47;4950787;28;20034;-75
2023/02/23 00:51:42;;;;;;;29.88;15.55;;;;;;;8.16;100.00;98426.97;4948183;28;20023;-75
2023/02/23 00:54:13;;;;;;;28.70;14.75;;;;;;;8.21;100.00;98430.72;4933166;29;20174;-75
2023/02/23 00:56:39;;;;;;;31.45;15.40;;;;;;;8.22;100.00;98428.84;4932788;29;20027;-75
2023/02/23 00:59:05;;;;;;;35.00;17.00;;;;;;;8.17;100.00;98426.75;4961644;28;20028;-75
2023/02/23 01:01:31;;;;;;;34.60;17.67;;;;;;;8.10;100.00;98425.91;4950671;28;20113;-75
2023/02/23 01:03:56;;;;;;;39.88;16.17;;;;;;;8.09;100.00;98414.25;4950658;29;20669;-75
2023/02/23 01:06:22;;;;;;;33.25;16.10;;;;;;;8.18;100.00;98416.81;4934609;29;20034;-75
2023/02/23 01:08:49;;;;;;;25.98;14.10;;;;;;;8.31;100.00;98430.38;4943012;28;20544;-75
2023/02/23 01:11:20;;;;;;;31.67;14.70;;;;;;;8.22;100.00;98423.47;4953327;28;20027;-75
2023/02/23 01:13:46;;;;;;;29.08;15.18;;;;;;;8.23;100.00;98436.75;4943384;29;20028;-76
2023/02/23 01:16:15;;;;;;;29.92;14.50;;;;;;;8.16;100.00;98424.28;4954539;28;20024;-74
2023/02/23 01:18:44;;;;;;;34.15;15.30;;;;;;;8.20;100.00;98430.91;4954172;28;20435;-75
2023/02/23 01:21:14;;;;;;;27.58;15.63;;;;;;;7.94;100.00;98405.47;4949316;28;20043;-75
2023/02/23 01:23:39;;;;;;;32.13;16.25;;;;;;;8.12;100.00;98423.81;4939902;29;20031;-75
2023/02/23 01:26:04;;;;;;;27.73;15.90;;;;;;;8.20;100.00;98433.59;4950436;28;20028;-75
2023/02/23 01:28:33;;;;;;;29.27;14.40;;;;;;;8.13;100.00;98441.66;4962171;28;20023;-75
2023/02/23 01:30:58;;;;;;;25.75;15.10;;;;;;;8.01;100.00;98427.88;4966136;28;20015;-76
2023/02/23 01:33:23;;;;;;;24.58;14.45;;;;;;;7.97;100.00;98432.03;4962874;29;20028;-76
2023/02/23 01:35:58;;;;;;;27.98;15.07;;;;;;;8.03;100.00;98439.31;4966629;28;20058;-75
2023/02/23 01:38:24;;;;;;;25.90;15.02;;;;;;;8.01;100.00;98435.97;4964619;29;20047;-76
2023/02/23 01:40:49;;;;;;;30.63;16.48;;;;;;;8.05;100.00;98431.88;4966243;28;20505;-75
2023/02/23 01:43:24;;;;;;;30.27;16.05;;;;;;;7.97;100.00;98428.50;4967102;29;20019;-75
2023/02/23 01:45:49;;;;;;;28.98;16.40;;;;;;;7.92;100.00;98429.06;4969734;28;20039;-75
2023/02/23 01:48:19;;;;;;;28.05;16.63;;;;;;;7.85;100.00;98433.56;4996124;28;20033;-75
2023/02/23 01:50:56;;;;;;;32.53;17.70;;;;;;;7.82;100.00;98442.03;4956128;29;20019;-76
2023/02/23 01:53:23;;;;;;;31.27;16.48;;;;;;;7.52;100.00;98428.75;4960973;28;20050;-75
2023/02/23 01:55:55;;;;;;;29.90;16.23;;;;;;;7.39;100.00;98440.22;4964677;29;20089;-75
2023/02/23 01:58:23;;;;;;;30.73;17.05;;;;;;;7.25;100.00;98443.78;4957228;28;20547;-74
2023/02/23 02:00:55;;;;;;;28.50;16.23;;;;;;;7.21;100.00;98437.13;4950441;29;20031;-74
2023/02/23 02:03:34;;;;;;;29.98;17.42;;;;;;;7.39;100.00;98452.84;4945546;28;20050;-74
2023/02/23 02:06:00;;;;;;;30.20;15.82;;;;;;;7.39;100.00;98440.22;4952671;29;20046;-75
2023/02/23 02:08:29;;;;;;;31.83;16.55;;;;;;;7.39;100.00;98444.78;4952943;28;20034;-75
2023/02/23 02:10:56;;;;;;;36.53;18.02;;;;;;;7.30;100.00;98425.19;4951011;29;20043;-75
2023/02/23 02:13:26;;;;;;;32.38;16.83;;;;;;;7.37;100.00;98434.19;4937566;28;20019;-74
2023/02/23 02:16:36;;;;;;;34.00;17.65;;;;;;;7.42;100.00;98442.50;4952430;29;20024;-75
2023/02/23 02:19:26;;;;;;;26.95;16.92;;;;;;;7.44;100.00;98435.09;4984839;28;20106;-75
2023/02/23 02:22:13;;;;;;;34.53;17.70;;;;;;;7.51;100.00;98440.53;4945451;29;20472;-75
2023/02/23 02:25:00;;;;;;;39.80;17.90;;;;;;;7.49;100.00;98428.28;4961203;28;20035;-75
2023/02/23 02:27:56;;;;;;;33.45;18.05;;;;;;;7.68;100.00;98439.25;4934405;29;20028;-74
2023/02/23 02:30:25;;;;;;;31.58;16.77;;;;;;;7.75;100.00;98433.06;4946312;28;20055;-75
2023/02/23 02:33:25;;;;;;;29.93;16.67;;;;;;;7.72;100.00;98423.50;4961645;28;20038;-75
2023/02/23 02:36:02;;;;;;;30.45;16.05;;;;;;;7.77;100.00;98428.31;4948803;28;20059;-74
2023/02/23 02:38:41;;;;;;;32.78;17.73;;;;;;;7.67;100.00;98416.00;4951522;28;20066;-74
2023/02/23 02:41:38;;;;;;;32.10;17.92;;;;;;;7.73;100.00;98425.19;4947282;28;21264;-75
2023/02/23 02:44:16;;;;;;;35.45;17.75;;;;;;;7.59;100.00;98415.31;4940469;28;20036;-75
2023/02/23 02:46:47;;;;;;;36.20;18.67;;;;;;;7.56;100.00;98421.09;4933903;29;20038;-75
2023/02/23 02:49:28;;;;;;;31.42;17.27;;;;;;;7.51;100.00;98426.22;4948453;29;20361;-75
2023/02/23 02:52:00;;;;;;;33.38;17.45;;;;;;;7.43;100.00;98419.94;4950955;28;20027;-75
2023/02/23 02:54:35;;;;;;;38.60;17.98;;;;;;;7.49;100.00;98423.72;4951257;29;20110;-75
2023/02/23 02:57:03;;;;;;;33.92;19.00;;;;;;;7.55;100.00;98428.34;4951701;29;20061;-75
2023/02/23 04:19:26;;;;;;;39.10;19.85;;;;;;;7.53;100.00;98430.41;4942894;28;20019;-75
2023/02/23 04:21:51;;;;;;;35.30;19.58;;;;;;;7.64;100.00;98439.81;4957160;29;20031;-76
2023/02/23 04:24:17;;;;;;;38.58;19.65;;;;;;;7.69;100.00;98421.22;4935019;29;20164;-76
2023/02/23 04:26:42;;;;;;;36.90;20.10;;;;;;;7.63;100.00;98430.91;4931640;29;20030;-76
2023/02/23 04:29:10;;;;;;;37.30;20.23;;;;;;;7.51;100.00;98405.53;4964059;28;20381;-75
2023/02/23 04:31:35;;;;;;;42.25;20.55;;;;;;;7.61;100.00;98434.81;4946475;28;20787;-76
2023/02/23 04:34:00;;;;;;;39.08;20.58;;;;;;;7.56;100.00;98419.25;4951799;29;20024;-76
2023/02/23 04:36:26;;;;;;;40.08;20.75;;;;;;;7.60;100.00;98419.72;4978417;28;20027;-77
2023/02/23 04:38:51;;;;;;;43.08;21.35;;;;;;;7.71;100.00;98445.28;4970310;28;20019;-76
2023/02/23 04:41:17;;;;;;;42.58;22.55;;;;;;;7.66;100.00;98432.38;4967256;28;20038;-77
2023/02/23 04:43:43;;;;;;;42.05;22.67;;;;;;;7.61;100.00;98427.56;4965653;28;20046;-76
2023/02/23 04:46:08;;;;;;;44.67;24.38;;;;;;;7.62;100.00;98440.03;4956403;28;20035;-76
2023/02/23 04:48:33;;;;;;;43.55;22.27;;;;;;;7.48;100.00;98419.38;4966009;28;20025;-74
2023/02/23 04:50:59;;;;;;;41.55;21.27;;;;;;;7.53;100.00;98433.09;4959226;28;20102;-75
2023/02/23 04:53:24;;;;;;;39.08;21.13;;;;;;;7.62;100.00;98445.41;4956512;28;20023;-75
2023/02/23 04:55:50;;;;;;;46.42;22.70;;;;;;;7.53;100.00;98434.97;4959094;29;20030;-75
2023/02/23 04:58:15;;;;;;;45.40;22.60;;;;;;;7.58;100.00;98424.44;4953329;29;20031;-76
2023/02/23 05:00:41;;;;;;;42.75;22.92;;;;;;;7.60;100.00;98434.00;4953693;28;20081;-76
2023/02/23 05:03:06;;;;;;;44.63;23.48;;;;;;;7.67;100.00;98434.84;4954332;28;20031;-76
2023/02/23 05:05:31;;;;;;;43.08;22.80;;;;;;;7.68;100.00;98439.25;4967324;28;20110;-74
2023/02/23 05:07:57;;;;;;;53.38;24.30;;;;;;;7.68;100.00;98435.72;4978710;28;20049;-76
2023/02/23 05:10:23;;;;;;;46.55;24.33;;;;;;;7.74;100.00;98443.00;4956455;28;20031;-76
2023/02/23 05:12:48;;;;;;;41.22;22.88;;;;;;;7.71;100.00;98439.88;4944792;28;20057;-75
2023/02/23 05:15:13;;;;;;;43.08;22.80;;;;;;;7.72;100.00;98441.53;4960616;28;20487;-75
2023/02/23 05:17:42;;;;;;;43.30;24.35;;;;;;;7.72;100.00;98447.75;4949662;28;20023;-75
2023/02/23 05:20:13;;;;;;;45.50;23.55;;;;;;;7.61;100.00;98426.75;4943565;28;20067;-76
2023/02/23 05:22:38;;;;;;;38.90;21.95;;;;;;;7.68;100.00;98424.94;4944069;29;20039;-75
2023/02/23 05:25:05;;;;;;;44.05;21.85;;;;;;;7.73;100.00;98443.19;4947334;28;20039;-75
2023/02/23 05:27:31;;;;;;;37.63;21.63;;;;;;;7.73;100.00;98444.06;4966079;28;20030;-76
2023/02/23 05:29:57;;;;;;;45.47;22.63;;;;;;;7.66;100.00;98440.47;4947492;28;20023;-75
2023/02/23 05:32:22;;;;;;;43.85;23.50;;;;;;;7.72;100.00;98436.16;4940027;29;20054;-75
2023/02/23 05:34:47;;;;;;;46.35;23.52;;;;;;;7.64;100.00;98427.19;4952199;28;20035;-77
2023/02/23 05:37:13;;;;;;;46.95;23.27;;;;;;;7.68;100.00;98438.41;4948136;28;20122;-75
2023/02/23 05:39:38;;;;;;;46.03;23.70;;;;;;;7.61;100.00;98432.13;4951972;29;20496;-74
2023/02/23 05:42:04;;;;;;;46.65;23.27;;;;;;;7.66;100.00;98446.66;4950109;28;20031;-74
2023/02/23 05:44:29;;;;;;;51.60;24.65;;;;;;;7.57;100.00;98441.59;4965643;28;20032;-75
2023/02/23 05:46:54;;;;;;;46.97;24.63;;;;;;;7.53;100.00;98441.16;4948493;28;20492;-74
2023/02/23 05:49:20;;;;;;;50.22;25.58;;;;;;;7.54;100.00;98447.38;4964001;28;20505;-75
2023/02/23 05:51:45;;;;;;;45.20;24.52;;;;;;;7.56;100.00;98451.53;4954158;28;20027;-74
2023/02/23 05:54:12;;;;;;;43.85;24.05;;;;;;;7.64;100.00;98454.09;4953259;28;20110;-76
2023/02/23 05:56:37;;;;;;;47.33;23.02;;;;;;;7.58;100.00;98441.41;4938532;28;20624;-76
2023/02/23 05:59:03;;;;;;;50.05;24.08;;;;;;;7.55;100.00;98452.59;4952880;29;20034;-76
2023/02/23 06:01:29;;;;;;;47.42;25.23;;;;;;;7.50;100.00;98446.94;4953082;28;20024;-75
2023/02/23 06:03:55;;;;;;;46.75;23.23;;;;;;;7.53;100.00;98451.94;4952735;28;20027;-76
2023/02/23 06:06:21;;;;;;;42.92;23.60;;;;;;;7.47;100.00;98456.22;4953414;28;20058;-75
2023/02/23 06:08:47;;;;;;;42.08;23.73;;;;;;;7.54;100.00;98458.97;4942666;29;20031;-76
2023/02/23 06:11:12;;;;;;;45.33;24.08;;;;;;;7.53;100.00;98449.25;4945760;28;20057;-76
2023/02/23 06:13:37;;;;;;;50.00;25.63;;;;;;;7.50;100.00;98456.88;4957259;28;20451;-75
2023/02/23 06:16:04;;;;;;;49.28;25.05;;;;;;;7.55;100.00;98457.97;4951149;29;20039;-75
2023/02/23 06:18:30;;;;;;;47.55;25.40;;;;;;;7.50;100.00;98463.09;4949436;28;20154;-75
2023/02/23 06:20:59;;;;;;;49.38;26.02;;;;;;;7.54;100.00;98475.13;4952850;28;20119;-77
2023/02/23 06:23:24;;;;;;;53.85;27.33;;;;;;;7.51;100.00;98480.06;4950702;29;20436;-75
2023/02/23 06:25:49;;;;;;;55.97;27.23;;;;;;;7.42;100.00;98469.44;4950046;28;20043;-75
2023/02/23 06:28:15;;;;;;;58.08;27.95;;;;;;;7.27;100.00;98454.34;4951587;28;20032;-75
2023/02/23 06:30:40;;;;;;;54.90;27.33;;;;;;;7.34;100.00;98458.78;4947898;28;20511;-74
2023/02/23 06:33:06;;;;;;;55.22;27.15;;;;;;;7.36;100.00;98469.34;5004662;23;21776;-77
2023/02/23 06:35:33;;;;;;;50.88;25.92;;;;;;;7.36;100.00;98462.13;4925146;29;20039;-79
2023/02/23 06:37:59;;;;;;;61.38;25.55;;;;;;;7.31;100.00;98467.25;4924356;28;20039;-77
2023/02/23 06:40:24;;;;;;;51.85;25.30;;;;;;;7.43;100.00;98478.34;4927408;28;20032;-86
2023/02/23 06:42:49;;;;;;;53.65;26.65;;;;;;;7.49;100.00;98480.25;4968431;28;20028;-81
2023/02/23 06:45:15;;;;;;;46.40;24.67;;;;;;;7.56;100.00;98489.22;4933216;29;20031;-84
2023/02/23 06:47:41;;;;;;;47.88;25.00;;;;;;;7.56;100.00;98483.03;4931931;28;20023;-77
2023/02/23 06:50:07;;;;;;;48.63;24.27;;;;;;;7.56;100.00;98473.06;4943967;28;20054;-80
2023/02/23 06:52:32;;;;;;;45.65;24.70;;;;;;;7.64;100.00;98481.03;4944913;28;20027;-75
2023/02/23 06:54:58;;;;;;;43.50;22.92;;;;;;;7.66;100.00;98480.84;4924532;28;20032;-75
2023/02/23 06:57:23;;;;;;;42.00;23.05;;;;;;;7.68;100.00;98482.31;4941410;29;20488;-85
2023/02/23 06:59:49;;;;;;;43.33;22.08;;;;;;;7.77;100.00;98493.78;4937475;28;20030;-72
2023/02/23 07:02:16;;;;;;;43.45;22.13;;;;;;;7.71;100.00;98470.34;4944678;28;20031;-74
2023/02/23 07:04:42;;;;;;;46.22;23.70;;;;;;;7.73;100.00;98462.91;4923581;29;20019;-73
2023/02/23 07:07:07;;;;;;;46.15;24.08;;;;;;;7.84;100.00;98489.31;4934014;29;20038;-73
2023/02/23 07:09:33;;;;;;;51.80;24.23;;;;;;;7.96;100.00;98494.16;4927671;29;20059;-73
2023/02/23 07:11:59;;;;;;;45.47;23.63;;;;;;;7.93;100.00;98494.53;4928937;29;20024;-73
2023/02/23 07:14:24;;;;;;;45.70;22.98;;;;;;;7.98;100.00;98492.94;4926401;28;20041;-74
2023/02/23 07:16:50;;;;;;;46.72;24.15;;;;;;;8.03;100.00;98498.56;4946399;28;20028;-74
2023/02/23 07:19:15;;;;;;;50.05;23.77;;;;;;;7.93;100.00;98492.69;4924768;28;20038;-75
2023/02/23 07:21:41;;;;;;;44.10;21.98;;;;;;;8.10;100.00;98502.16;4927789;28;20041;-72
2023/02/23 07:24:07;;;;;;;40.15;22.33;;;;;;;8.06;100.00;98506.25;4929339;28;20453;-72
2023/02/23 07:26:33;;;;;;;40.78;21.67;;;;;;;8.08;100.00;98504.22;4945853;28;20456;-72
2023/02/23 07:28:59;;;;;;;39.28;21.52;;;;;;;7.99;100.00;98491.06;4941650;28;20481;-74
2023/02/23 07:31:25;;;;;;;41.88;22.45;;;;;;;8.02;100.00;98493.41;4927594;28;20039;-77
2023/02/23 07:33:51;;;;;;;41.70;22.45;;;;;;;7.93;100.00;98494.53;4923471;28;20032;-78
2023/02/23 07:36:17;;;;;;;40.55;21.13;;;;;;;8.06;100.00;98490.09;4922796;28;20028;-76
2023/02/23 07:38:42;;;;;;;47.20;23.58;;;;;;;8.12;100.00;98494.72;4943447;28;20492;-77
2023/02/23 07:41:08;;;;;;;43.28;23.13;;;;;;;8.07;100.00;98481.00;4928398;28;20090;-75
2023/02/23 07:43:33;;;;;;;44.83;23.50;;;;;;;8.04;100.00;98492.19;4931289;28;20027;-76
2023/02/23 07:46:00;;;;;;;44.70;23.48;;;;;;;8.21;100.00;98508.06;4938286;28;20473;-75
2023/02/23 07:48:25;;;;;;;42.83;23.33;;;;;;;8.35;100.00;98501.72;4929807;28;20038;-77
2023/02/23 07:50:51;;;;;;;50.30;25.15;;;;;;;8.41;100.00;98492.91;4951171;28;20031;-76
2023/02/23 07:53:16;;;;;;;49.65;25.10;;;;;;;8.43;100.00;98473.81;4922286;28;20035;-76
2023/02/23 07:55:41;;;;;;;42.47;23.63;;;;;;;8.62;100.00;98488.44;4930911;28;20035;-76
2023/02/23 07:58:07;;;;;;;45.92;25.30;;;;;;;8.88;100.00;98514.72;4932617;29;20115;-76
2023/02/23 08:00:35;;;;;;;42.90;22.38;;;;;;;8.96;100.00;98499.22;4930020;29;20051;-76
2023/02/23 08:03:00;;;;;;;46.22;22.50;;;;;;;9.07;100.00;98505.09;4927271;28;20062;-76
2023/02/23 08:05:27;;;;;;;40.30;20.58;;;;;;;8.70;100.00;98461.34;4932260;28;20058;-75
2023/02/23 08:07:52;;;;;;;41.28;21.83;;;;;;;9.09;100.00;98511.09;4928528;28;20031;-75
2023/02/23 08:10:18;;;;;;;39.53;22.23;;;;;;;9.10;100.00;98507.38;4927279;28;20081;-74
2023/02/23 08:12:43;;;;;;;35.70;20.58;;;;;;;8.96;100.00;98483.03;4938874;28;20026;-75
2023/02/23 08:15:09;;;;;;;36.60;20.75;;;;;;;9.28;100.00;98496.03;4944493;28;20041;-75
2023/02/23 08:17:35;;;;;;;37.17;19.85;;;;;;;9.35;100.00;98483.38;4936151;28;20452;-79
2023/02/23 08:20:00;;;;;;;34.95;19.48;;;;;;;9.60;100.00;98484.47;4944265;28;20020;-77
2023/02/23 08:22:26;;;;;;;33.97;19.85;;;;;;;9.84;100.00;98493.84;4924155;28;20032;-75
2023/02/23 08:24:51;;;;;;;37.17;19.30;;;;;;;9.84;100.00;98506.53;4931919;28;20047;-76
2023/02/23 08:27:18;;;;;;;34.67;19.27;;;;;;;9.84;100.00;98504.66;4939602;28;20107;-77
2023/02/23 08:29:44;;;;;;;37.88;19.45;;;;;;;9.81;100.00;98496.97;4944087;28;20032;-76
2023/02/23 08:32:09;;;;;;;38.53;19.88;;;;;;;9.73;100.00;98486.38;4933643;29;20023;-76
2023/02/23 08:34:43;;;;;;;38.72;20.40;;;;;;;9.93;100.00;98508.00;4931003;28;20032;-76
2023/02/23 08:37:09;;;;;;;31.20;18.42;;;;;;;10.01;100.00;98486.19;4943922;29;20036;-76
2023/02/23 08:39:34;;;;;;;31.08;16.95;;;;;;;10.51;100.00;98502.00;4922689;29;20028;-76
2023/02/23 08:42:00;;;;;;;30.50;17.63;;;;;;;10.44;100.00;98476.81;4930375;28;20063;-75
2023/02/23 08:44:25;;;;;;;32.00;17.63;;;;;;;10.56;100.00;98480.56;4927823;29;20028;-76
2023/02/23 08:46:52;;;;;;;30.60;16.25;;;;;;;10.55;100.00;98494.28;4925543;28;20097;-75
2023/02/23 08:49:18;;;;;;;30.30;16.60;;;;;;;10.71;100.00;98491.13;4931195;29;20028;-72
2023/02/23 08:51:45;;;;;;;30.27;16.77;;;;;;;10.48;100.00;98475.38;4939918;28;20023;-75
2023/02/23 08:54:13;;;;;;;27.00;15.68;;;;;;;10.61;100.00;98485.31;4932930;28;20764;-70
2023/02/23 08:56:39;;;;;;;29.65;15.93;;;;;;;10.56;100.00;98494.09;4933408;28;20110;-73
2023/02/23 08:59:05;;;;;;;35.22;17.25;;;;;;;10.49;100.00;98504.91;4944203;29;20103;-74
2023/02/23 09:01:30;;;;;;;34.55;16.27;;;;;;;10.34;100.00;98493.47;4946952;28;20027;-74
2023/02/23 09:03:55;;;;;;;30.50;15.40;;;;;;;10.53;100.00;98494.47;4945183;28;20027;-74
2023/02/23 09:06:27;;;;;;;27.42;15.50;;;;;;;10.75;100.00;98506.72;4931938;28;20100;-72
2023/02/23 09:08:54;;;;;;;28.40;14.43;;;;;;;10.98;100.00;98502.72;4928366;28;20032;-73
2023/02/23 09:11:19;;;;;;;23.08;13.60;;;;;;;11.02;100.00;98503.94;4927247;29;20031;-77
2023/02/23 09:13:45;;;;;;;26.55;13.88;;;;;;;10.85;100.00;98484.66;4933807;28;20036;-71
2023/02/23 09:16:10;;;;;;;25.40;13.10;;;;;;;11.14;100.00;98498.72;4927899;29;20138;-85
2023/02/23 09:18:38;;;;;;;24.02;13.23;;;;;;;11.17;100.00;98458.47;4951851;28;20094;-84
2023/02/23 09:21:06;;;;;;;26.95;13.73;;;;;;;11.40;100.00;98487.75;4922638;29;20032;-78
2023/02/23 09:23:32;;;;;;;22.45;14.00;;;;;;;11.56;100.00;98480.16;4935250;28;20560;-75
2023/02/23 09:26:02;;;;;;;24.48;14.02;;;;;;;11.79;100.00;98485.03;4933329;29;20035;-74
2023/02/23 09:28:29;;;;;;;25.23;12.68;;;;;;;12.22;100.00;98478.88;4932128;28;20024;-75
2023/02/23 09:30:55;;;;;;;22.15;12.55;;;;;;;12.89;100.00;98493.47;4930741;28;20024;-73
2023/02/23 09:33:20;;;;;;;24.85;13.38;;;;;;;12.81;100.00;98488.31;4928172;29;20433;-72
2023/02/23 09:35:46;;;;;;;22.52;12.75;;;;;;;12.69;100.00;98492.84;4933883;29;20031;-73
2023/02/23 09:38:11;;;;;;;25.35;13.57;;;;;;;12.60;100.00;98475.16;4931339;29;20035;-73
2023/02/23 09:40:48;;;;;;;29.33;12.25;;;;;;;13.62;100.00;98493.63;4932598;28;20038;-74
2023/02/23 09:43:34;;;;;;;19.23;10.60;;;;;;;14.61;100.00;98480.34;4925779;28;20048;-73
2023/02/23 09:46:40;;;;;;;23.42;11.35;;;;;;;15.97;100.00;98479.81;4922638;29;20036;-70
2023/02/23 09:49:14;;;;;;;16.38;9.93;;;;;;;16.54;100.00;98466.00;4933038;28;20075;-72
2023/02/23 09:51:46;;;;;;;21.73;10.35;;;;;;;16.17;100.00;98488.38;4934034;28;20056;-72
2023/02/23 09:54:15;;;;;;;17.02;9.57;;;;;;;16.18;100.00;98475.53;4921980;29;20024;-71
2023/02/23 09:56:48;;;;;;;16.73;8.65;;;;;;;18.32;100.00;98484.81;4928883;28;20028;-75
2023/02/23 09:59:20;;;;;;;15.35;8.48;;;;;;;20.72;94.45;98473.81;4926714;29;20035;-74
2023/02/23 10:02:50;;;;;;;19.30;9.73;;;;;;;22.62;69.31;98466.22;4923287;28;20063;-75
2023/02/23 10:05:15;;;;;;;16.85;8.50;;;;;;;23.98;61.35;98466.81;4910826;28;20043;-74
2023/02/23 10:07:54;;;;;;;12.00;7.32;;;;;;;26.01;53.19;98471.53;4929771;29;20032;-76
2023/02/23 10:10:39;;;;;;;14.10;7.45;;;;;;;26.24;51.10;98475.16;4939696;28;20024;-73
2023/02/23 10:13:29;;;;;;;13.57;7.90;;;;;;;25.87;50.15;98476.31;4948922;28;20103;-74
2023/02/23 10:16:11;;;;;;;10.70;6.90;;;;;;;26.99;48.35;98461.63;4934693;29;20039;-77
2023/02/23 10:18:51;;;;;;;12.27;7.43;;;;;;;26.47;48.40;98471.59;4936455;29;20035;-78
2023/02/23 10:21:54;;;;;;;12.10;7.38;;;;;;;26.56;47.98;98461.38;4947885;28;20035;-77
2023/02/23 10:24:28;;;;;;;8.40;5.68;;;;;;;25.20;49.66;98456.69;4921606;28;20036;-77
2023/02/23 10:27:01;;;;;;;9.80;5.47;;;;;;;24.58;50.75;98468.91;4926848;28;20059;-77
2023/02/23 10:29:30;;;;;;;11.32;6.45;;;;;;;24.41;52.32;98465.84;4933886;29;20535;-77
2023/02/23 10:32:06;;;;;;;9.85;6.10;;;;;;;23.52;52.41;98450.03;4941657;28;20081;-77
2023/02/23 10:34:32;;;;;;;10.75;6.00;;;;;;;22.28;57.40;98435.94;4933582;28;20109;-77
2023/02/23 10:37:04;;;;;;;9.20;5.88;;;;;;;21.05;62.80;98444.88;4931831;29;20028;-78
2023/02/23 10:39:31;;;;;;;10.73;5.55;;;;;;;21.13;63.69;98466.28;4934146;28;20039;-76
2023/02/23 10:42:06;;;;;;;9.57;5.10;;;;;;;21.50;64.95;98473.31;4953219;28;20029;-78
2023/02/23 10:44:32;;;;;;;10.13;5.13;;;;;;;22.07;65.71;98463.63;4942520;29;20115;-79
2023/02/23 10:47:13;;;;;;;10.50;5.22;;;;;;;22.29;59.40;98456.84;4918237;28;20076;-77
2023/02/23 10:49:46;;;;;;;7.43;4.70;;;;;;;22.81;57.83;98473.75;4926630;29;20449;-78
2023/02/23 10:52:16;;;;;;;8.07;4.07;;;;;;;22.20;59.48;98466.88;4925630;28;20405;-78
2023/02/23 10:54:46;;;;;;;8.75;4.60;;;;;;;24.09;55.35;98475.75;4930233;28;20074;-78
2023/02/23 10:57:23;;;;;;;8.25;4.03;;;;;;;24.48;52.12;98461.59;4924459;29;20117;-78
2023/02/23 11:00:01;;;;;;;8.93;4.25;;;;;;;21.70;56.69;98463.31;4929986;29;20082;-78
2023/02/23 11:02:29;;;;;;;7.63;4.10;;;;;;;20.31;61.79;98476.59;4925334;29;20541;-78
2023/02/23 11:04:58;;;;;;;10.82;3.85;;;;;;;19.49;78.82;98481.91;4929705;28;20036;-78
2023/02/23 11:07:30;;;;;;;;;;;;;;;18.57;91.99;98471.28;4932408;28;20455;-78
2023/02/23 11:09:59;;;;;;;10.15;4.55;;;;;;;19.00;95.64;98476.78;4940617;29;19919;-78
2023/02/23 11:12:43;;;;;;;9.63;5.00;;;;;;;19.11;100.00;98470.25;4924464;28;20492;-78
2023/02/23 11:15:24;;;;;;;7.57;4.40;;;;;;;18.48;100.00;98475.59;4942143;29;20082;-78
2023/02/23 11:17:57;;;;;;;8.85;5.07;;;;;;;17.92;100.00;98467.75;4923048;28;20038;-78
2023/02/23 11:20:34;;;;;;;7.55;4.68;;;;;;;17.47;100.00;98459.84;4934794;29;20047;-78
2023/02/23 11:23:27;;;;;;;9.98;4.80;;;;;;;17.42;100.00;98465.25;4929193;28;20023;-78
2023/02/23 11:25:55;;;;;;;8.45;4.43;;;;;;;18.32;100.00;98457.41;4921023;28;20044;-78
2023/02/23 11:28:29;;;;;;;6.25;3.75;;;;;;;19.50;92.94;98456.13;4916564;29;20471;-77
2023/02/23 11:30:56;;;;;;;7.75;4.07;;;;;;;20.49;78.43;98404.59;4931015;28;20040;-78
2023/02/23 11:33:30;;;;;;;7.25;3.92;;;;;;;21.25;69.21;98441.22;4914393;29;20409;-76
2023/02/23 11:36:12;;;;;;;11.52;4.72;;;;;;;21.27;66.59;98451.94;4924144;28;20036;-76
2023/02/23 11:38:37;;;;;;;7.70;4.38;;;;;;;21.56;67.31;98435.59;4948577;28;20401;-76
2023/02/23 11:41:15;;;;;;;9.40;4.43;;;;;;;21.60;64.50;98431.16;4927237;28;20031;-76
2023/02/23 11:43:47;;;;;;;6.65;4.50;;;;;;;22.13;67.50;98425.81;5010920;28;20395;-77
2023/02/23 11:46:13;;;;;;;8.68;4.53;;;;;;;23.22;60.84;98418.13;5011838;28;20519;-78
2023/02/23 11:48:55;;;;;;;8.95;3.95;;;;;;;24.77;55.52;98423.75;4951423;28;20070;-77
2023/02/23 11:51:27;;;;;;;9.27;4.47;;;;;;;23.06;56.28;98440.41;4925191;28;20392;-77
2023/02/23 11:53:53;;;;;;;7.95;4.22;;;;;;;20.88;64.33;98423.22;4921107;29;20024;-77
2023/02/23 11:56:21;;;;;;;9.10;3.78;;;;;;;21.41;63.84;98434.56;4933859;29;20042;-77
2023/02/23 11:58:48;;;;;;;8.05;3.95;;;;;;;21.42;61.68;98433.44;4933194;29;20039;-78
2023/02/23 12:01:20;;;;;;;8.85;4.18;;;;;;;21.88;60.02;98413.09;4930009;28;20047;-78
2023/02/23 12:03:50;;;;;;;9.20;4.70;;;;;;;21.62;63.44;98417.94;4960087;28;20040;-77
2023/02/23 12:06:32;;;;;;;13.02;4.75;;;;;;;22.62;59.58;98411.06;4935542;28;20028;-78
2023/02/23 12:09:23;;;;;;;9.25;4.35;;;;;;;24.28;56.60;98418.47;4993624;28;20024;-77
2023/02/23 12:11:54;;;;;;;11.52;6.00;;;;;;;24.80;50.92;98417.59;4950804;28;20073;-78
2023/02/23 12:14:23;;;;;;;6.63;3.95;;;;;;;25.39;51.81;98413.09;4953144;28;20051;-77
2023/02/23 12:16:51;;;;;;;;;;;;;;;24.87;50.79;98415.25;4952800;28;20036;-78
2023/02/23 12:19:29;;;;;;;7.35;4.20;;;;;;;23.74;53.30;98408.06;4942421;28;19914;-78
2023/02/23 12:22:21;;;;;;;7.03;3.77;;;;;;;21.70;58.97;98395.31;4951421;28;20048;-77
2023/02/23 12:24:56;;;;;;;11.60;4.15;;;;;;;21.24;61.09;98396.38;4916064;29;20028;-78
2023/02/23 12:27:29;;;;;;;9.65;3.80;;;;;;;20.61;63.52;98409.00;4916378;29;20024;-78
2023/02/23 12:30:08;;;;;;;8.93;3.75;;;;;;;19.46;66.98;98405.63;4937114;28;20024;-78
2023/02/23 12:32:40;;;;;;;8.82;3.33;;;;;;;18.79;69.29;98412.81;4917455;29;20118;-78
2023/02/23 12:35:26;;;;;;;7.93;3.58;;;;;;;18.75;78.07;98417.16;4963863;23;20138;-76
2023/02/23 12:38:00;;;;;;;10.43;4.25;;;;;;;18.79;88.50;98401.84;4923061;28;20059;-76
2023/02/23 12:40:28;;;;;;;15.35;3.97;;;;;;;19.37;84.98;98405.34;4930414;29;20042;-76
2023/02/23 12:43:07;;;;;;;8.82;3.17;;;;;;;19.40;72.09;98407.53;4929293;28;20036;-77
2023/02/23 12:45:38;;;;;;;8.20;3.50;;;;;;;19.74;69.31;98404.34;4913990;29;20051;-77
2023/02/23 12:48:29;;;;;;;6.82;3.00;;;;;;;19.76;68.92;98401.34;4948784;28;20060;-78
2023/02/23 12:50:57;;;;;;;9.25;3.17;;;;;;;20.33;66.59;98387.31;4928061;29;20171;-74
2023/02/23 12:53:38;;;;;;;10.95;2.92;;;;;;;19.35;64.75;98390.25;4921579;29;20556;-76